sensor_id;sensor_type;location;lat;lon;timestamp;P1;durP1;ratioP1;P2;durP2;ratioP2
77085;SDS011;66014;53.134;18.006;2024-02-16T00:01:18;51.90;;;25.20;;
77085;SDS011;66014;53.134;18.006;2024-02-16T00:03:45;49.60;;;25.40;;
77085;SDS011;66014;53.134;18.006;2024-02-16T00:06:12;48.40;;;23.50;;
77085;SDS011;66014;53.134;18.006;2024-02-16T00:08:38;51.10;;;25.00;;
77085;SDS011;66014;53.134;18.006;2024-02-16T00:11:06;44.40;;;23.30;;
77085;SDS011;66014;53.134;18.006;2024-02-16T00:13:33;48.10;;;23.20;;
77085;SDS011;66014;53.134;18.006;2024-02-16T00:16:00;47.40;;;21.40;;
77085;SDS011;66014;53.134;18.006;2024-02-16T00:18:26;43.50;;;22.00;;
77085;SDS011;66014;53.134;18.006;2024-02-16T00:20:53;43.40;;;22.40;;
77085;SDS011;66014;53.134;18.006;2024-02-16T00:23:20;46.60;;;21.50;;
77085;SDS011;66014;53.134;18.006;2024-02-16T00:25:48;47.70;;;22.50;;
77085;SDS011;66014;53.134;18.006;2024-02-16T00:28:15;47.90;;;23.60;;
77085;SDS011;66014;53.134;18.006;2024-02-16T00:30:42;46.80;;;22.40;;
77085;SDS011;66014;53.134;18.006;2024-02-16T00:33:09;45.60;;;23.70;;
77085;SDS011;66014;53.134;18.006;2024-02-16T00:35:36;44.60;;;22.40;;
77085;SDS011;66014;53.134;18.006;2024-02-16T00:38:02;43.10;;;21.50;;
77085;SDS011;66014;53.134;18.006;2024-02-16T00:40:29;44.40;;;22.00;;
77085;SDS011;66014;53.134;18.006;2024-02-16T00:42:57;47.80;;;24.40;;
77085;SDS011;66014;53.134;18.006;2024-02-16T00:48:49;41.90;;;19.90;;
77085;SDS011;66014;53.134;18.006;2024-02-16T00:51:20;40.00;;;20.90;;
77085;SDS011;66014;53.134;18.006;2024-02-16T00:53:47;43.30;;;21.90;;
77085;SDS011;66014;53.134;18.006;2024-02-16T00:56:17;45.70;;;21.90;;
77085;SDS011;66014;53.134;18.006;2024-02-16T00:58:44;48.40;;;22.90;;
77085;SDS011;66014;53.134;18.006;2024-02-16T01:01:10;44.30;;;22.80;;
77085;SDS011;66014;53.134;18.006;2024-02-16T01:03:38;43.00;;;21.10;;
77085;SDS011;66014;53.134;18.006;2024-02-16T01:06:06;41.60;;;22.00;;
77085;SDS011;66014;53.134;18.006;2024-02-16T01:08:36;51.90;;;24.50;;
77085;SDS011;66014;53.134;18.006;2024-02-16T01:11:03;46.70;;;22.40;;
77085;SDS011;66014;53.134;18.006;2024-02-16T01:13:30;45.20;;;23.80;;
77085;SDS011;66014;53.134;18.006;2024-02-16T01:15:56;45.00;;;22.20;;
77085;SDS011;66014;53.134;18.006;2024-02-16T01:18:23;47.00;;;22.90;;
77085;SDS011;66014;53.134;18.006;2024-02-16T01:20:50;43.70;;;21.50;;
77085;SDS011;66014;53.134;18.006;2024-02-16T01:23:17;42.20;;;20.40;;
77085;SDS011;66014;53.134;18.006;2024-02-16T01:25:52;44.20;;;22.00;;
77085;SDS011;66014;53.134;18.006;2024-02-16T01:28:18;38.10;;;20.40;;
77085;SDS011;66014;53.134;18.006;2024-02-16T01:30:52;37.00;;;20.10;;
77085;SDS011;66014;53.134;18.006;2024-02-16T01:33:19;42.10;;;21.00;;
77085;SDS011;66014;53.134;18.006;2024-02-16T01:35:46;40.80;;;21.50;;
77085;SDS011;66014;53.134;18.006;2024-02-16T01:38:15;41.20;;;23.20;;
77085;SDS011;66014;53.134;18.006;2024-02-16T01:40:42;44.70;;;23.60;;
77085;SDS011;66014;53.134;18.006;2024-02-16T01:43:08;45.30;;;22.80;;
77085;SDS011;66014;53.134;18.006;2024-02-16T01:45:35;45.10;;;22.20;;
77085;SDS011;66014;53.134;18.006;2024-02-16T01:48:01;40.20;;;22.50;;
77085;SDS011;66014;53.134;18.006;2024-02-16T01:50:28;44.70;;;21.90;;
77085;SDS011;66014;53.134;18.006;2024-02-16T01:52:55;43.40;;;20.60;;
77085;SDS011;66014;53.134;18.006;2024-02-16T01:55:22;39.10;;;19.90;;
77085;SDS011;66014;53.134;18.006;2024-02-16T01:57:49;36.30;;;19.70;;
77085;SDS011;66014;53.134;18.006;2024-02-16T02:00:16;36.20;;;20.20;;
77085;SDS011;66014;53.134;18.006;2024-02-16T02:05:14;37.90;;;19.50;;
77085;SDS011;66014;53.134;18.006;2024-02-16T02:07:42;44.10;;;20.00;;
77085;SDS011;66014;53.134;18.006;2024-02-16T02:10:09;44.10;;;22.00;;
77085;SDS011;66014;53.134;18.006;2024-02-16T02:12:40;39.20;;;18.70;;
77085;SDS011;66014;53.134;18.006;2024-02-16T02:15:18;38.10;;;19.70;;
77085;SDS011;66014;53.134;18.006;2024-02-16T02:17:47;42.40;;;19.40;;
77085;SDS011;66014;53.134;18.006;2024-02-16T02:20:14;38.60;;;18.70;;
77085;SDS011;66014;53.134;18.006;2024-02-16T02:22:41;37.30;;;18.50;;
77085;SDS011;66014;53.134;18.006;2024-02-16T02:25:08;37.80;;;17.20;;
77085;SDS011;66014;53.134;18.006;2024-02-16T02:27:37;36.10;;;19.40;;
77085;SDS011;66014;53.134;18.006;2024-02-16T02:30:04;37.60;;;19.40;;
77085;SDS011;66014;53.134;18.006;2024-02-16T02:32:32;37.60;;;18.20;;
77085;SDS011;66014;53.134;18.006;2024-02-16T02:34:59;38.50;;;19.70;;
77085;SDS011;66014;53.134;18.006;2024-02-16T02:37:25;34.30;;;18.10;;
77085;SDS011;66014;53.134;18.006;2024-02-16T02:39:52;33.40;;;16.30;;
77085;SDS011;66014;53.134;18.006;2024-02-16T02:42:19;34.90;;;15.90;;
77085;SDS011;66014;53.134;18.006;2024-02-16T02:44:46;36.40;;;17.10;;
77085;SDS011;66014;53.134;18.006;2024-02-16T02:47:16;34.90;;;18.00;;
77085;SDS011;66014;53.134;18.006;2024-02-16T02:49:43;34.70;;;17.20;;
77085;SDS011;66014;53.134;18.006;2024-02-16T02:52:10;35.30;;;17.40;;
77085;SDS011;66014;53.134;18.006;2024-02-16T02:54:37;35.70;;;17.50;;
77085;SDS011;66014;53.134;18.006;2024-02-16T02:57:03;33.70;;;18.00;;
77085;SDS011;66014;53.134;18.006;2024-02-16T02:59:30;32.40;;;16.70;;
77085;SDS011;66014;53.134;18.006;2024-02-16T03:01:57;36.50;;;18.30;;
77085;SDS011;66014;53.134;18.006;2024-02-16T03:04:23;30.60;;;17.40;;
77085;SDS011;66014;53.134;18.006;2024-02-16T03:06:53;29.30;;;15.20;;
77085;SDS011;66014;53.134;18.006;2024-02-16T03:09:20;28.90;;;16.00;;
77085;SDS011;66014;53.134;18.006;2024-02-16T03:11:51;31.50;;;16.40;;
77085;SDS011;66014;53.134;18.006;2024-02-16T03:14:31;32.50;;;15.10;;
77085;SDS011;66014;53.134;18.006;2024-02-16T03:16:58;33.60;;;16.70;;
77085;SDS011;66014;53.134;18.006;2024-02-16T03:19:24;36.30;;;17.50;;
77085;SDS011;66014;53.134;18.006;2024-02-16T03:21:51;31.40;;;15.00;;
77085;SDS011;66014;53.134;18.006;2024-02-16T03:24:17;27.00;;;14.00;;
77085;SDS011;66014;53.134;18.006;2024-02-16T03:26:45;35.40;;;16.80;;
77085;SDS011;66014;53.134;18.006;2024-02-16T03:29:11;30.80;;;15.60;;
77085;SDS011;66014;53.134;18.006;2024-02-16T03:31:38;33.90;;;16.50;;
77085;SDS011;66014;53.134;18.006;2024-02-16T03:34:04;36.50;;;17.50;;
77085;SDS011;66014;53.134;18.006;2024-02-16T03:36:31;35.00;;;18.70;;
77085;SDS011;66014;53.134;18.006;2024-02-16T03:38:58;33.50;;;17.00;;
77085;SDS011;66014;53.134;18.006;2024-02-16T03:41:24;34.10;;;17.10;;
77085;SDS011;66014;53.134;18.006;2024-02-16T03:43:51;31.10;;;15.10;;
77085;SDS011;66014;53.134;18.006;2024-02-16T03:46:18;36.10;;;19.70;;
77085;SDS011;66014;53.134;18.006;2024-02-16T03:48:44;34.50;;;18.10;;
77085;SDS011;66014;53.134;18.006;2024-02-16T03:51:11;35.70;;;17.80;;
77085;SDS011;66014;53.134;18.006;2024-02-16T03:53:38;36.30;;;18.00;;
77085;SDS011;66014;53.134;18.006;2024-02-16T03:56:05;44.80;;;21.00;;
77085;SDS011;66014;53.134;18.006;2024-02-16T03:58:32;34.10;;;18.70;;
77085;SDS011;66014;53.134;18.006;2024-02-16T04:00:59;36.80;;;19.90;;
77085;SDS011;66014;53.134;18.006;2024-02-16T04:03:26;36.20;;;17.40;;
77085;SDS011;66014;53.134;18.006;2024-02-16T04:05:52;38.80;;;19.30;;
77085;SDS011;66014;53.134;18.006;2024-02-16T04:08:19;37.60;;;18.50;;
77085;SDS011;66014;53.134;18.006;2024-02-16T04:10:46;41.60;;;20.00;;
77085;SDS011;66014;53.134;18.006;2024-02-16T04:13:13;31.90;;;17.70;;
77085;SDS011;66014;53.134;18.006;2024-02-16T04:15:39;37.50;;;20.00;;
77085;SDS011;66014;53.134;18.006;2024-02-16T04:18:06;34.90;;;17.90;;
77085;SDS011;66014;53.134;18.006;2024-02-16T04:20:32;42.10;;;20.10;;
77085;SDS011;66014;53.134;18.006;2024-02-16T04:23:00;38.00;;;20.10;;
77085;SDS011;66014;53.134;18.006;2024-02-16T04:25:27;38.50;;;19.10;;
77085;SDS011;66014;53.134;18.006;2024-02-16T04:27:53;37.70;;;21.60;;
77085;SDS011;66014;53.134;18.006;2024-02-16T04:30:20;40.70;;;20.40;;
77085;SDS011;66014;53.134;18.006;2024-02-16T04:32:47;35.60;;;19.20;;
77085;SDS011;66014;53.134;18.006;2024-02-16T04:35:16;42.20;;;20.00;;
77085;SDS011;66014;53.134;18.006;2024-02-16T04:37:43;37.80;;;20.30;;
77085;SDS011;66014;53.134;18.006;2024-02-16T04:40:10;32.10;;;17.80;;
77085;SDS011;66014;53.134;18.006;2024-02-16T04:42:38;53.20;;;30.20;;
77085;SDS011;66014;53.134;18.006;2024-02-16T04:45:11;44.60;;;23.70;;
77085;SDS011;66014;53.134;18.006;2024-02-16T04:47:39;42.60;;;21.70;;
77085;SDS011;66014;53.134;18.006;2024-02-16T04:50:06;41.60;;;23.10;;
77085;SDS011;66014;53.134;18.006;2024-02-16T04:52:36;45.50;;;26.40;;
77085;SDS011;66014;53.134;18.006;2024-02-16T04:55:04;50.40;;;27.20;;
77085;SDS011;66014;53.134;18.006;2024-02-16T04:57:32;43.50;;;24.20;;
77085;SDS011;66014;53.134;18.006;2024-02-16T04:59:59;42.20;;;22.90;;
77085;SDS011;66014;53.134;18.006;2024-02-16T05:02:26;46.00;;;23.80;;
77085;SDS011;66014;53.134;18.006;2024-02-16T05:04:53;37.50;;;21.30;;
77085;SDS011;66014;53.134;18.006;2024-02-16T05:07:38;37.20;;;20.90;;
77085;SDS011;66014;53.134;18.006;2024-02-16T05:10:47;30.50;;;17.80;;
77085;SDS011;66014;53.134;18.006;2024-02-16T05:13:14;36.60;;;19.80;;
77085;SDS011;66014;53.134;18.006;2024-02-16T05:15:40;33.90;;;18.70;;
77085;SDS011;66014;53.134;18.006;2024-02-16T05:18:08;43.20;;;20.90;;
77085;SDS011;66014;53.134;18.006;2024-02-16T05:20:34;37.30;;;20.10;;
77085;SDS011;66014;53.134;18.006;2024-02-16T05:23:03;42.00;;;20.50;;
77085;SDS011;66014;53.134;18.006;2024-02-16T05:25:32;38.20;;;20.30;;
77085;SDS011;66014;53.134;18.006;2024-02-16T05:27:59;40.40;;;19.20;;
77085;SDS011;66014;53.134;18.006;2024-02-16T05:30:27;37.90;;;19.20;;
77085;SDS011;66014;53.134;18.006;2024-02-16T05:32:57;37.60;;;18.40;;
77085;SDS011;66014;53.134;18.006;2024-02-16T05:43:20;35.60;;;19.10;;
77085;SDS011;66014;53.134;18.006;2024-02-16T05:45:49;39.40;;;19.30;;
77085;SDS011;66014;53.134;18.006;2024-02-16T05:48:22;42.40;;;21.00;;
77085;SDS011;66014;53.134;18.006;2024-02-16T05:50:53;46.00;;;25.10;;
77085;SDS011;66014;53.134;18.006;2024-02-16T05:54:16;41.70;;;22.30;;
77085;SDS011;66014;53.134;18.006;2024-02-16T05:56:44;49.20;;;22.40;;
77085;SDS011;66014;53.134;18.006;2024-02-16T05:59:10;48.30;;;23.40;;
77085;SDS011;66014;53.134;18.006;2024-02-16T06:01:38;40.90;;;19.30;;
77085;SDS011;66014;53.134;18.006;2024-02-16T06:04:05;45.00;;;21.70;;
77085;SDS011;66014;53.134;18.006;2024-02-16T06:06:32;37.90;;;20.30;;
77085;SDS011;66014;53.134;18.006;2024-02-16T06:08:59;46.30;;;22.90;;
77085;SDS011;66014;53.134;18.006;2024-02-16T06:11:25;42.40;;;19.70;;
77085;SDS011;66014;53.134;18.006;2024-02-16T06:13:52;40.40;;;20.30;;
77085;SDS011;66014;53.134;18.006;2024-02-16T06:16:21;35.60;;;19.00;;
77085;SDS011;66014;53.134;18.006;2024-02-16T06:18:48;36.20;;;20.70;;
77085;SDS011;66014;53.134;18.006;2024-02-16T06:21:16;37.30;;;19.50;;
77085;SDS011;66014;53.134;18.006;2024-02-16T06:23:44;35.20;;;18.90;;
77085;SDS011;66014;53.134;18.006;2024-02-16T06:26:10;41.80;;;20.90;;
77085;SDS011;66014;53.134;18.006;2024-02-16T06:28:39;40.70;;;19.90;;
77085;SDS011;66014;53.134;18.006;2024-02-16T06:31:07;32.40;;;17.80;;
77085;SDS011;66014;53.134;18.006;2024-02-16T06:33:34;34.10;;;18.40;;
77085;SDS011;66014;53.134;18.006;2024-02-16T06:36:01;39.50;;;21.50;;
77085;SDS011;66014;53.134;18.006;2024-02-16T06:38:28;36.50;;;20.10;;
77085;SDS011;66014;53.134;18.006;2024-02-16T06:40:55;34.80;;;18.50;;
77085;SDS011;66014;53.134;18.006;2024-02-16T06:43:46;37.00;;;19.90;;
77085;SDS011;66014;53.134;18.006;2024-02-16T06:46:15;58.00;;;36.80;;
77085;SDS011;66014;53.134;18.006;2024-02-16T06:49:05;39.20;;;22.10;;
77085;SDS011;66014;53.134;18.006;2024-02-16T06:51:53;38.30;;;22.40;;
77085;SDS011;66014;53.134;18.006;2024-02-16T06:54:21;44.50;;;26.10;;
77085;SDS011;66014;53.134;18.006;2024-02-16T06:57:20;65.60;;;38.00;;
77085;SDS011;66014;53.134;18.006;2024-02-16T06:59:47;36.70;;;20.90;;
77085;SDS011;66014;53.134;18.006;2024-02-16T07:02:13;35.50;;;19.80;;
77085;SDS011;66014;53.134;18.006;2024-02-16T07:04:45;41.70;;;22.60;;
77085;SDS011;66014;53.134;18.006;2024-02-16T07:10:40;37.80;;;20.20;;
77085;SDS011;66014;53.134;18.006;2024-02-16T07:13:12;42.00;;;21.70;;
77085;SDS011;66014;53.134;18.006;2024-02-16T07:15:46;36.60;;;18.60;;
77085;SDS011;66014;53.134;18.006;2024-02-16T07:21:03;34.80;;;18.60;;
77085;SDS011;66014;53.134;18.006;2024-02-16T07:23:30;34.10;;;18.90;;
77085;SDS011;66014;53.134;18.006;2024-02-16T07:25:56;33.20;;;19.60;;
77085;SDS011;66014;53.134;18.006;2024-02-16T07:28:24;32.60;;;17.80;;
77085;SDS011;66014;53.134;18.006;2024-02-16T07:30:55;31.40;;;18.30;;
77085;SDS011;66014;53.134;18.006;2024-02-16T07:33:21;32.40;;;19.40;;
77085;SDS011;66014;53.134;18.006;2024-02-16T07:35:51;30.10;;;17.10;;
77085;SDS011;66014;53.134;18.006;2024-02-16T07:38:24;33.00;;;20.20;;
77085;SDS011;66014;53.134;18.006;2024-02-16T07:40:55;35.90;;;20.60;;
77085;SDS011;66014;53.134;18.006;2024-02-16T07:43:22;31.90;;;18.60;;
77085;SDS011;66014;53.134;18.006;2024-02-16T07:45:52;32.50;;;17.90;;
77085;SDS011;66014;53.134;18.006;2024-02-16T07:48:21;29.60;;;17.90;;
77085;SDS011;66014;53.134;18.006;2024-02-16T07:50:52;27.20;;;17.10;;
77085;SDS011;66014;53.134;18.006;2024-02-16T07:53:19;24.50;;;14.90;;
77085;SDS011;66014;53.134;18.006;2024-02-16T07:55:46;27.00;;;15.20;;
77085;SDS011;66014;53.134;18.006;2024-02-16T07:58:12;25.30;;;15.40;;
77085;SDS011;66014;53.134;18.006;2024-02-16T08:00:39;29.20;;;16.00;;
77085;SDS011;66014;53.134;18.006;2024-02-16T08:03:08;29.90;;;16.20;;
77085;SDS011;66014;53.134;18.006;2024-02-16T08:05:43;25.60;;;14.30;;
77085;SDS011;66014;53.134;18.006;2024-02-16T08:08:12;27.70;;;14.40;;
77085;SDS011;66014;53.134;18.006;2024-02-16T08:10:57;24.30;;;14.70;;
77085;SDS011;66014;53.134;18.006;2024-02-16T08:13:23;24.60;;;14.30;;
77085;SDS011;66014;53.134;18.006;2024-02-16T08:15:51;29.60;;;15.80;;
77085;SDS011;66014;53.134;18.006;2024-02-16T08:18:18;23.50;;;14.00;;
77085;SDS011;66014;53.134;18.006;2024-02-16T08:20:47;26.70;;;14.70;;
77085;SDS011;66014;53.134;18.006;2024-02-16T08:33:25;23.50;;;12.70;;
77085;SDS011;66014;53.134;18.006;2024-02-16T08:35:51;20.70;;;13.30;;
77085;SDS011;66014;53.134;18.006;2024-02-16T08:38:18;21.70;;;13.00;;
77085;SDS011;66014;53.134;18.006;2024-02-16T08:40:45;24.80;;;13.80;;
77085;SDS011;66014;53.134;18.006;2024-02-16T08:43:14;33.00;;;19.10;;
77085;SDS011;66014;53.134;18.006;2024-02-16T08:45:40;30.50;;;16.70;;
77085;SDS011;66014;53.134;18.006;2024-02-16T08:51:42;25.50;;;14.10;;
77085;SDS011;66014;53.134;18.006;2024-02-16T08:54:15;26.10;;;14.00;;
77085;SDS011;66014;53.134;18.006;2024-02-16T08:57:00;20.30;;;11.70;;
77085;SDS011;66014;53.134;18.006;2024-02-16T08:59:28;20.70;;;12.90;;
77085;SDS011;66014;53.134;18.006;2024-02-16T09:01:56;21.00;;;11.50;;
77085;SDS011;66014;53.134;18.006;2024-02-16T09:04:24;21.80;;;13.50;;
77085;SDS011;66014;53.134;18.006;2024-02-16T09:06:51;23.40;;;13.50;;
77085;SDS011;66014;53.134;18.006;2024-02-16T09:09:17;22.30;;;11.30;;
77085;SDS011;66014;53.134;18.006;2024-02-16T09:11:44;20.80;;;12.40;;
77085;SDS011;66014;53.134;18.006;2024-02-16T09:14:12;24.00;;;12.50;;
77085;SDS011;66014;53.134;18.006;2024-02-16T09:16:39;27.80;;;15.70;;
77085;SDS011;66014;53.134;18.006;2024-02-16T09:19:06;21.50;;;13.50;;
77085;SDS011;66014;53.134;18.006;2024-02-16T09:21:36;18.10;;;11.40;;
77085;SDS011;66014;53.134;18.006;2024-02-16T09:24:17;20.60;;;12.50;;
77085;SDS011;66014;53.134;18.006;2024-02-16T09:26:45;22.10;;;13.10;;
77085;SDS011;66014;53.134;18.006;2024-02-16T09:29:13;22.50;;;12.40;;
77085;SDS011;66014;53.134;18.006;2024-02-16T09:31:40;27.70;;;17.00;;
77085;SDS011;66014;53.134;18.006;2024-02-16T09:34:09;25.40;;;14.20;;
77085;SDS011;66014;53.134;18.006;2024-02-16T09:36:35;24.90;;;15.60;;
77085;SDS011;66014;53.134;18.006;2024-02-16T09:39:03;22.60;;;13.40;;
77085;SDS011;66014;53.134;18.006;2024-02-16T09:41:31;20.80;;;12.70;;
77085;SDS011;66014;53.134;18.006;2024-02-16T09:44:04;26.20;;;14.10;;
77085;SDS011;66014;53.134;18.006;2024-02-16T09:46:36;21.20;;;11.80;;
77085;SDS011;66014;53.134;18.006;2024-02-16T09:49:25;19.70;;;12.70;;
77085;SDS011;66014;53.134;18.006;2024-02-16T09:52:35;24.70;;;14.60;;
77085;SDS011;66014;53.134;18.006;2024-02-16T09:55:16;19.40;;;11.20;;
77085;SDS011;66014;53.134;18.006;2024-02-16T09:58:00;17.50;;;11.20;;
77085;SDS011;66014;53.134;18.006;2024-02-16T10:00:28;18.10;;;11.70;;
77085;SDS011;66014;53.134;18.006;2024-02-16T10:02:54;20.20;;;11.80;;
77085;SDS011;66014;53.134;18.006;2024-02-16T10:05:21;20.20;;;11.20;;
77085;SDS011;66014;53.134;18.006;2024-02-16T10:07:48;22.10;;;13.30;;
77085;SDS011;66014;53.134;18.006;2024-02-16T10:13:00;18.80;;;12.40;;
77085;SDS011;66014;53.134;18.006;2024-02-16T10:15:30;20.20;;;11.80;;
77085;SDS011;66014;53.134;18.006;2024-02-16T10:18:01;19.10;;;11.50;;
77085;SDS011;66014;53.134;18.006;2024-02-16T10:20:29;21.50;;;10.70;;
77085;SDS011;66014;53.134;18.006;2024-02-16T10:23:06;20.20;;;12.30;;
77085;SDS011;66014;53.134;18.006;2024-02-16T10:25:37;17.10;;;10.70;;
77085;SDS011;66014;53.134;18.006;2024-02-16T10:28:08;18.40;;;11.40;;
77085;SDS011;66014;53.134;18.006;2024-02-16T10:30:39;18.60;;;11.40;;
77085;SDS011;66014;53.134;18.006;2024-02-16T10:33:13;17.20;;;10.70;;
77085;SDS011;66014;53.134;18.006;2024-02-16T10:35:39;18.00;;;10.90;;
77085;SDS011;66014;53.134;18.006;2024-02-16T10:40:40;18.90;;;10.60;;
77085;SDS011;66014;53.134;18.006;2024-02-16T10:43:08;17.60;;;10.80;;
77085;SDS011;66014;53.134;18.006;2024-02-16T10:45:36;19.10;;;11.30;;
77085;SDS011;66014;53.134;18.006;2024-02-16T10:48:05;20.00;;;11.80;;
77085;SDS011;66014;53.134;18.006;2024-02-16T10:50:34;20.00;;;11.80;;
77085;SDS011;66014;53.134;18.006;2024-02-16T10:53:04;19.50;;;11.60;;
77085;SDS011;66014;53.134;18.006;2024-02-16T10:55:49;20.20;;;11.50;;
77085;SDS011;66014;53.134;18.006;2024-02-16T10:58:20;18.80;;;11.00;;
77085;SDS011;66014;53.134;18.006;2024-02-16T11:00:51;18.30;;;10.70;;
77085;SDS011;66014;53.134;18.006;2024-02-16T11:03:39;17.50;;;10.20;;
77085;SDS011;66014;53.134;18.006;2024-02-16T11:06:15;15.50;;;8.70;;
77085;SDS011;66014;53.134;18.006;2024-02-16T11:08:44;16.70;;;10.50;;
77085;SDS011;66014;53.134;18.006;2024-02-16T11:11:22;15.10;;;9.30;;
77085;SDS011;66014;53.134;18.006;2024-02-16T11:13:54;21.90;;;12.30;;
77085;SDS011;66014;53.134;18.006;2024-02-16T11:16:22;16.80;;;10.20;;
77085;SDS011;66014;53.134;18.006;2024-02-16T11:18:50;18.90;;;12.00;;
77085;SDS011;66014;53.134;18.006;2024-02-16T11:21:17;17.60;;;11.10;;
77085;SDS011;66014;53.134;18.006;2024-02-16T11:23:44;18.60;;;10.60;;
77085;SDS011;66014;53.134;18.006;2024-02-16T11:26:11;18.00;;;11.30;;
77085;SDS011;66014;53.134;18.006;2024-02-16T11:28:41;16.40;;;10.90;;
77085;SDS011;66014;53.134;18.006;2024-02-16T11:31:08;25.50;;;15.70;;
77085;SDS011;66014;53.134;18.006;2024-02-16T11:33:35;29.30;;;18.80;;
77085;SDS011;66014;53.134;18.006;2024-02-16T11:36:03;19.10;;;12.20;;
77085;SDS011;66014;53.134;18.006;2024-02-16T11:38:32;19.10;;;10.90;;
77085;SDS011;66014;53.134;18.006;2024-02-16T11:41:00;16.20;;;9.90;;
77085;SDS011;66014;53.134;18.006;2024-02-16T11:43:29;16.10;;;9.50;;
77085;SDS011;66014;53.134;18.006;2024-02-16T11:45:56;16.70;;;9.60;;
77085;SDS011;66014;53.134;18.006;2024-02-16T11:48:26;17.80;;;10.40;;
77085;SDS011;66014;53.134;18.006;2024-02-16T11:51:08;16.00;;;9.20;;
77085;SDS011;66014;53.134;18.006;2024-02-16T11:54:00;15.70;;;9.10;;
77085;SDS011;66014;53.134;18.006;2024-02-16T11:59:55;18.30;;;9.40;;
77085;SDS011;66014;53.134;18.006;2024-02-16T12:02:23;14.10;;;8.10;;
77085;SDS011;66014;53.134;18.006;2024-02-16T12:04:59;20.50;;;11.30;;
77085;SDS011;66014;53.134;18.006;2024-02-16T12:07:27;15.30;;;9.20;;
77085;SDS011;66014;53.134;18.006;2024-02-16T12:09:58;14.20;;;9.10;;
77085;SDS011;66014;53.134;18.006;2024-02-16T12:12:26;17.50;;;8.20;;
77085;SDS011;66014;53.134;18.006;2024-02-16T12:14:54;15.40;;;9.10;;
77085;SDS011;66014;53.134;18.006;2024-02-16T12:17:21;20.70;;;11.60;;
77085;SDS011;66014;53.134;18.006;2024-02-16T12:19:47;19.80;;;11.70;;
77085;SDS011;66014;53.134;18.006;2024-02-16T12:22:20;19.90;;;10.60;;
77085;SDS011;66014;53.134;18.006;2024-02-16T12:24:48;16.30;;;10.10;;
77085;SDS011;66014;53.134;18.006;2024-02-16T12:27:16;19.30;;;10.90;;
77085;SDS011;66014;53.134;18.006;2024-02-16T12:29:43;14.80;;;8.80;;
77085;SDS011;66014;53.134;18.006;2024-02-16T12:32:10;14.30;;;8.80;;
77085;SDS011;66014;53.134;18.006;2024-02-16T12:34:37;13.70;;;7.90;;
77085;SDS011;66014;53.134;18.006;2024-02-16T12:37:07;13.40;;;7.50;;
77085;SDS011;66014;53.134;18.006;2024-02-16T12:39:34;12.90;;;7.00;;
77085;SDS011;66014;53.134;18.006;2024-02-16T12:42:01;14.20;;;7.30;;
77085;SDS011;66014;53.134;18.006;2024-02-16T12:46:57;12.10;;;6.60;;
77085;SDS011;66014;53.134;18.006;2024-02-16T12:49:24;13.80;;;7.10;;
77085;SDS011;66014;53.134;18.006;2024-02-16T12:51:52;15.90;;;8.30;;
77085;SDS011;66014;53.134;18.006;2024-02-16T12:54:21;16.90;;;7.90;;
77085;SDS011;66014;53.134;18.006;2024-02-16T12:56:48;14.10;;;7.70;;
77085;SDS011;66014;53.134;18.006;2024-02-16T12:59:15;29.30;;;24.00;;
77085;SDS011;66014;53.134;18.006;2024-02-16T13:01:43;15.70;;;9.20;;
77085;SDS011;66014;53.134;18.006;2024-02-16T13:04:10;17.30;;;10.00;;
77085;SDS011;66014;53.134;18.006;2024-02-16T13:06:47;21.30;;;13.60;;
77085;SDS011;66014;53.134;18.006;2024-02-16T13:09:49;17.30;;;10.20;;
77085;SDS011;66014;53.134;18.006;2024-02-16T13:12:08;17.70;;;10.30;;
77085;SDS011;66014;53.134;18.006;2024-02-16T13:14:35;19.20;;;9.90;;
77085;SDS011;66014;53.134;18.006;2024-02-16T13:17:04;20.40;;;10.30;;
77085;SDS011;66014;53.134;18.006;2024-02-16T13:19:30;20.20;;;10.30;;
77085;SDS011;66014;53.134;18.006;2024-02-16T13:21:57;19.10;;;9.80;;
77085;SDS011;66014;53.134;18.006;2024-02-16T13:24:24;17.40;;;10.30;;
77085;SDS011;66014;53.134;18.006;2024-02-16T13:27:00;16.60;;;8.70;;
77085;SDS011;66014;53.134;18.006;2024-02-16T13:29:29;16.20;;;10.10;;
77085;SDS011;66014;53.134;18.006;2024-02-16T13:31:58;17.70;;;10.30;;
77085;SDS011;66014;53.134;18.006;2024-02-16T13:34:39;17.70;;;10.10;;
77085;SDS011;66014;53.134;18.006;2024-02-16T13:37:25;17.00;;;8.90;;
77085;SDS011;66014;53.134;18.006;2024-02-16T13:39:55;22.30;;;12.70;;
77085;SDS011;66014;53.134;18.006;2024-02-16T13:42:22;21.80;;;13.70;;
77085;SDS011;66014;53.134;18.006;2024-02-16T13:44:48;20.40;;;10.80;;
77085;SDS011;66014;53.134;18.006;2024-02-16T13:47:15;22.40;;;12.90;;
77085;SDS011;66014;53.134;18.006;2024-02-16T13:49:41;34.90;;;23.50;;
77085;SDS011;66014;53.134;18.006;2024-02-16T13:52:08;79.40;;;69.60;;
77085;SDS011;66014;53.134;18.006;2024-02-16T13:54:36;23.40;;;16.30;;
77085;SDS011;66014;53.134;18.006;2024-02-16T13:57:03;23.90;;;17.40;;
77085;SDS011;66014;53.134;18.006;2024-02-16T13:59:30;22.40;;;13.10;;
77085;SDS011;66014;53.134;18.006;2024-02-16T14:01:59;19.10;;;10.70;;
77085;SDS011;66014;53.134;18.006;2024-02-16T14:04:27;20.30;;;9.90;;
77085;SDS011;66014;53.134;18.006;2024-02-16T14:06:55;19.20;;;9.60;;
77085;SDS011;66014;53.134;18.006;2024-02-16T14:09:21;19.70;;;10.10;;
77085;SDS011;66014;53.134;18.006;2024-02-16T14:11:48;20.60;;;9.00;;
77085;SDS011;66014;53.134;18.006;2024-02-16T14:14:15;22.90;;;9.60;;
77085;SDS011;66014;53.134;18.006;2024-02-16T14:16:44;27.00;;;13.30;;
77085;SDS011;66014;53.134;18.006;2024-02-16T14:19:11;21.80;;;11.30;;
77085;SDS011;66014;53.134;18.006;2024-02-16T14:21:37;19.40;;;10.80;;
77085;SDS011;66014;53.134;18.006;2024-02-16T14:24:05;18.20;;;9.50;;
77085;SDS011;66014;53.134;18.006;2024-02-16T14:26:31;20.40;;;9.90;;
77085;SDS011;66014;53.134;18.006;2024-02-16T14:28:58;18.70;;;9.70;;
77085;SDS011;66014;53.134;18.006;2024-02-16T14:31:25;24.80;;;11.30;;
77085;SDS011;66014;53.134;18.006;2024-02-16T14:33:52;19.10;;;10.40;;
77085;SDS011;66014;53.134;18.006;2024-02-16T14:39:22;19.50;;;9.80;;
77085;SDS011;66014;53.134;18.006;2024-02-16T14:41:51;17.20;;;9.50;;
77085;SDS011;66014;53.134;18.006;2024-02-16T14:44:18;18.30;;;9.30;;
77085;SDS011;66014;53.134;18.006;2024-02-16T14:46:44;17.60;;;9.30;;
77085;SDS011;66014;53.134;18.006;2024-02-16T14:49:12;15.90;;;9.40;;
77085;SDS011;66014;53.134;18.006;2024-02-16T14:51:49;13.50;;;8.50;;
77085;SDS011;66014;53.134;18.006;2024-02-16T14:54:15;21.60;;;10.40;;
77085;SDS011;66014;53.134;18.006;2024-02-16T14:56:42;24.70;;;11.70;;
77085;SDS011;66014;53.134;18.006;2024-02-16T14:59:08;27.60;;;12.80;;
77085;SDS011;66014;53.134;18.006;2024-02-16T15:01:37;23.50;;;11.20;;
77085;SDS011;66014;53.134;18.006;2024-02-16T15:04:03;21.70;;;10.60;;
77085;SDS011;66014;53.134;18.006;2024-02-16T15:06:30;24.70;;;10.90;;
77085;SDS011;66014;53.134;18.006;2024-02-16T15:09:04;20.30;;;9.70;;
77085;SDS011;66014;53.134;18.006;2024-02-16T15:11:32;17.30;;;8.60;;